Time;durP1;ratioP1;P1;durP2;ratioP2;P2;SDS_P1;SDS_P2;PMS_P1;PMS_P2;Temp;Humidity;BMP_temperature;BMP_pressure;BME280_temperature;BME280_humidity;BME280_pressure;Samples;Min_cycle;Max_cycle;Signal;HPM_P1;HPM_P2
2021/10/03 00:01:39;;;;;;;;;;;16.70;99.90;;;;;;8386688;28;19920;-73
2021/10/03 00:05:41;;;;;;;;;;;16.70;99.90;;;;;;8392938;28;20390;-73
2021/10/03 00:09:43;;;;;;;;;;;16.70;99.90;;;;;;8392585;28;19939;-73
2021/10/03 00:13:45;;;;;;;;;;;16.70;99.90;;;;;;8394577;28;19920;-72
2021/10/03 00:17:48;;;;;;;;;;;16.70;99.90;;;;;;8411960;28;19957;-72
2021/10/03 00:21:50;;;;;;;;;;;16.80;99.90;;;;;;8381587;28;19974;-72
2021/10/03 00:25:52;;;;;;;;;;;16.80;99.90;;;;;;8393258;28;19920;-72
2021/10/03 00:29:53;;;;;;;;;;;16.80;99.90;;;;;;8398262;28;19924;-72
2021/10/03 00:33:55;;;;;;;;;;;16.80;99.90;;;;;;8411945;28;19974;-72
2021/10/03 00:37:59;;;;;;;;;;;16.80;99.90;;;;;;8386476;28;19920;-72
2021/10/03 00:42:01;;;;;;;;;;;16.90;99.90;;;;;;8391709;28;20020;-72
2021/10/03 00:46:03;;;;;;;;;;;16.90;99.90;;;;;;8386823;28;20264;-72
2021/10/03 00:50:05;;;;;;;;;;;17.00;99.90;;;;;;8409791;28;19921;-72
2021/10/03 00:54:07;;;;;;;;;;;17.00;99.90;;;;;;8406422;28;19982;-72
2021/10/03 00:58:09;;;;;;;;;;;17.00;99.90;;;;;;8379833;28;19920;-72
2021/10/03 01:02:10;;;;;;;;;;;17.10;99.90;;;;;;8379768;28;19920;-72
2021/10/03 01:06:12;;;;;;;;;;;17.10;99.90;;;;;;8384968;28;19928;-72
2021/10/03 01:10:19;;;;;;;;;;;17.20;99.90;;;;;;8389113;28;19921;-73
2021/10/03 01:14:24;;;;;;;;;;;17.20;99.90;;;;;;8373313;28;19924;-72
2021/10/03 01:18:26;;;;;;;;;;;17.20;99.90;;;;;;8389379;28;20291;-72
2021/10/03 01:22:28;;;;;;;;;;;17.20;99.90;;;;;;8367365;28;19931;-72
2021/10/03 01:26:30;;;;;;;;;;;17.20;99.90;;;;;;8396315;28;19970;-72
2021/10/03 01:30:32;;;;;;;;;;;17.20;99.90;;;;;;8390686;28;19924;-73
2021/10/03 01:34:33;;;;;;;;;;;17.10;99.90;;;;;;8388563;28;19921;-72
2021/10/03 01:38:36;;;;;;;;;;;17.00;99.90;;;;;;8383686;28;19925;-72
2021/10/03 01:42:38;;;;;;;;;;;17.00;99.90;;;;;;8392517;28;19927;-73
2021/10/03 01:46:41;;;;;;;;;;;16.90;99.90;;;;;;8391073;28;20308;-74
2021/10/03 01:50:43;;;;;;;;;;;16.40;99.90;;;;;;8394455;28;20018;-71
2021/10/03 01:54:45;;;;;;;;;;;16.10;99.90;;;;;;8369103;28;20268;-72
2021/10/03 01:58:48;;;;;;;;;;;15.80;99.90;;;;;;8388905;28;19924;-73
2021/10/03 02:02:57;;;;;;;;;;;15.70;99.90;;;;;;8386902;28;20232;-72
2021/10/03 02:06:59;;;;;;;;;;;15.60;99.90;;;;;;8392060;28;20039;-72
2021/10/03 02:11:01;;;;;;;;;;;15.50;99.90;;;;;;8388543;28;19921;-72
2021/10/03 02:15:03;;;;;;;;;;;15.50;99.90;;;;;;8391370;28;19928;-71
2021/10/03 02:19:05;;;;;;;;;;;15.50;99.90;;;;;;8393521;28;19920;-72
2021/10/03 02:23:10;;;;;;;;;;;15.50;99.90;;;;;;8384954;28;20390;-72
2021/10/03 02:27:11;;;;;;;;;;;15.50;99.90;;;;;;8378006;28;20360;-72
2021/10/03 02:31:13;;;;;;;;;;;15.50;99.90;;;;;;8387369;28;19921;-72
2021/10/03 02:35:15;;;;;;;;;;;15.50;99.90;;;;;;8389671;28;20296;-72
2021/10/03 02:39:17;;;;;;;;;;;15.60;99.90;;;;;;8374630;28;19924;-71
2021/10/03 02:43:18;;;;;;;;;;;15.60;99.90;;;;;;8390770;28;19925;-72
2021/10/03 02:47:20;;;;;;;;;;;15.60;99.90;;;;;;8388137;28;19921;-71
2021/10/03 02:51:27;;;;;;;;;;;15.60;99.90;;;;;;8377119;28;19928;-72
2021/10/03 02:55:29;;;;;;;;;;;15.60;99.90;;;;;;8404234;28;20378;-71
2021/10/03 02:59:31;;;;;;;;;;;15.60;99.90;;;;;;8385258;28;20447;-73
2021/10/03 03:03:35;;;;;;;;;;;15.60;99.90;;;;;;8395391;28;19931;-73
2021/10/03 03:07:37;;;;;;;;;;;15.50;99.90;;;;;;8389817;28;19924;-72
2021/10/03 03:11:39;;;;;;;;;;;15.30;99.90;;;;;;8393597;28;19974;-73
2021/10/03 03:15:40;;;;;;;;;;;15.10;99.90;;;;;;8389255;28;20693;-73
2021/10/03 03:19:42;;;;;;;;;;;14.90;99.90;;;;;;8384082;28;20261;-73
2021/10/03 03:23:44;;;;;;;;;;;14.80;99.90;;;;;;8395307;28;19921;-73
2021/10/03 03:27:46;;;;;;;;;;;14.80;99.90;;;;;;8383181;28;19932;-73
2021/10/03 03:31:48;;;;;;;;;;;14.70;99.90;;;;;;8382197;28;19969;-73
2021/10/03 03:35:50;;;;;;;;;;;14.60;99.90;;;;;;8381882;28;19921;-73
2021/10/03 03:39:51;;;;;;;;;;;14.60;99.90;;;;;;8381360;28;20596;-73
2021/10/03 03:43:53;;;;;;;;;;;14.60;99.90;;;;;;8392335;28;19921;-73
2021/10/03 03:47:56;;;;;;;;;;;14.60;99.90;;;;;;8403816;28;19954;-73
2021/10/03 03:51:58;;;;;;;;;;;14.50;99.90;;;;;;8391483;28;19950;-73
2021/10/03 03:55:59;;;;;;;;;;;14.50;99.90;;;;;;8391819;28;19920;-73
2021/10/03 04:00:02;;;;;;;;;;;14.50;99.90;;;;;;8389425;28;19921;-73
2021/10/03 04:04:04;;;;;;;;;;;14.50;99.90;;;;;;8383875;28;19998;-73
2021/10/03 04:08:06;;;;;;;;;;;14.50;99.90;;;;;;8391784;28;19928;-72
2021/10/03 04:12:08;;;;;;;;;;;14.50;99.90;;;;;;8382622;28;19935;-73
2021/10/03 04:16:09;;;;;;;;;;;14.50;99.90;;;;;;8386945;28;19927;-73
2021/10/03 04:20:11;;;;;;;;;;;14.50;99.90;;;;;;8384742;28;20378;-73
2021/10/03 04:24:13;;;;;;;;;;;14.50;99.90;;;;;;8389536;28;19920;-73
2021/10/03 04:28:15;;;;;;;;;;;14.60;99.90;;;;;;8403247;28;19931;-72
2021/10/03 04:32:16;;;;;;;;;;;14.50;99.90;;;;;;8389450;28;19920;-73
2021/10/03 04:36:18;;;;;;;;;;;14.50;99.90;;;;;;8390913;28;19996;-73
2021/10/03 04:40:20;;;;;;;;;;;14.50;99.90;;;;;;8390637;28;19921;-73
2021/10/03 04:44:34;;;;;;;;;;;14.50;99.90;;;;;;8385735;28;19924;-73
2021/10/03 04:48:35;;;;;;;;;;;14.40;99.90;;;;;;8392381;28;19920;-73
2021/10/03 04:52:39;;;;;;;;;;;14.40;99.90;;;;;;8393691;28;19924;-73
2021/10/03 04:56:41;;;;;;;;;;;14.40;99.90;;;;;;8412039;28;19927;-73
2021/10/03 05:00:42;;;;;;;;;;;14.30;99.90;;;;;;8393169;28;19921;-73
2021/10/03 05:04:44;;;;;;;;;;;14.30;99.90;;;;;;8409603;28;19921;-73
2021/10/03 05:08:46;;;;;;;;;;;14.20;99.90;;;;;;8394890;28;19939;-73
2021/10/03 05:12:48;;;;;;;;;;;14.20;99.90;;;;;;8384751;28;19931;-73
2021/10/03 05:16:49;;;;;;;;;;;14.30;99.90;;;;;;8381380;28;19926;-72
2021/10/03 05:20:51;;;;;;;;;;;14.30;99.90;;;;;;8387845;28;19926;-73
2021/10/03 05:24:53;;;;;;;;;;;14.30;99.90;;;;;;8392963;28;19940;-72
2021/10/03 05:28:55;;;;;;;;;;;14.30;99.90;;;;;;8391408;28;19970;-73
2021/10/03 05:32:57;;;;;;;;;;;14.30;99.90;;;;;;8387889;28;20288;-73
2021/10/03 05:36:58;;;;;;;;;;;14.20;99.90;;;;;;8390514;28;19924;-73
2021/10/03 05:41:00;;;;;;;;;;;14.20;99.90;;;;;;8406061;28;19920;-73
2021/10/03 05:45:02;;;;;;;;;;;14.20;99.90;;;;;;8391230;28;19931;-73
2021/10/03 05:49:04;;;;;;;;;;;14.20;99.90;;;;;;8394695;28;19920;-73
2021/10/03 05:53:27;;;;;;;;;;;14.30;99.90;;;;;;8390827;28;19920;-73
2021/10/03 05:57:29;;;;;;;;;;;14.30;99.90;;;;;;8386993;28;19925;-73
2021/10/03 06:01:31;;;;;;;;;;;14.30;99.90;;;;;;8391839;28;21765;-72
2021/10/03 06:05:32;;;;;;;;;;;14.30;99.90;;;;;;8400273;28;19920;-73
2021/10/03 06:09:34;;;;;;;;;;;14.40;99.90;;;;;;8390418;28;19920;-73
2021/10/03 06:13:36;;;;;;;;;;;14.40;99.90;;;;;;8393138;28;19928;-73
2021/10/03 06:17:37;;;;;;;;;;;14.40;99.90;;;;;;8393938;28;19928;-73
2021/10/03 06:21:39;;;;;;;;;;;14.40;99.90;;;;;;8385257;28;19939;-73
2021/10/03 06:25:41;;;;;;;;;;;14.40;99.90;;;;;;8369520;28;19929;-72
2021/10/03 06:29:43;;;;;;;;;;;14.20;99.90;;;;;;8392707;28;19928;-73
2021/10/03 06:33:45;;;;;;;2.75;0.90;;;14.10;99.90;;;;;;8393678;28;19928;-73
2021/10/03 06:37:48;;;;;;;3.67;0.70;;;13.90;99.90;;;;;;8390821;28;20135;-73
2021/10/03 06:41:49;;;;;;;2.38;0.77;;;13.80;99.90;;;;;;8370443;28;20044;-73
2021/10/03 06:45:51;;;;;;;1.98;0.80;;;13.80;99.90;;;;;;8388760;28;20484;-74
2021/10/03 06:49:53;;;;;;;2.95;0.70;;;13.70;99.90;;;;;;8387024;28;20068;-73
2021/10/03 06:53:55;;;;;;;3.40;0.77;;;13.70;99.90;;;;;;8373927;28;20131;-73
2021/10/03 06:57:57;;;;;;;;;;;13.70;99.90;;;;;;8375635;28;20059;-73
2021/10/03 07:02:05;;;;;;;;;;;13.70;99.90;;;;;;8390977;28;19933;-73
2021/10/03 07:06:07;;;;;;;;;;;13.70;99.90;;;;;;8387778;28;19921;-73
2021/10/03 07:10:09;;;;;;;;;;;13.70;99.90;;;;;;8405401;28;20356;-72
2021/10/03 07:14:10;;;;;;;;;;;13.70;99.90;;;;;;8391507;28;19920;-73
2021/10/03 07:18:12;;;;;;;;;;;13.70;99.90;;;;;;8387465;28;19973;-73
2021/10/03 07:22:14;;;;;;;;;;;13.70;99.90;;;;;;8375375;28;19920;-73
2021/10/03 07:26:15;;;;;;;;;;;13.70;99.90;;;;;;8366731;28;20249;-74
2021/10/03 07:30:17;;;;;;;;;;;13.80;99.90;;;;;;8367029;28;19924;-73
2021/10/03 07:34:19;;;;;;;;;;;13.80;99.90;;;;;;8363151;28;19983;-73
2021/10/03 07:38:20;;;;;;;;;;;13.80;99.90;;;;;;8364390;28;19928;-73
2021/10/03 07:42:22;;;;;;;;;;;13.80;99.90;;;;;;8367460;28;20433;-73
2021/10/03 07:46:23;;;;;;;;;;;13.90;99.90;;;;;;8368368;28;19921;-73
2021/10/03 07:50:25;;;;;;;;;;;13.90;99.90;;;;;;8364920;28;19999;-73
2021/10/03 07:54:27;;;;;;;;;;;13.90;99.90;;;;;;8366119;28;19921;-73
2021/10/03 07:58:28;;;;;;;;;;;13.90;99.90;;;;;;8367043;28;19943;-73
2021/10/03 08:02:30;;;;;;;;;;;13.90;99.90;;;;;;8364829;28;19924;-73
2021/10/03 08:06:32;;;;;;;;;;;13.90;99.90;;;;;;8366674;28;20022;-73
2021/10/03 08:10:34;;;;;;;;;;;13.80;99.90;;;;;;8367377;28;20364;-73
2021/10/03 08:14:35;;;;;;;;;;;13.80;99.90;;;;;;8369509;28;19920;-73
2021/10/03 08:18:37;;;;;;;;;;;13.90;99.90;;;;;;8370111;28;19925;-73
2021/10/03 08:22:39;;;;;;;;;;;13.90;99.90;;;;;;8369097;28;20364;-73
2021/10/03 08:26:40;;;;;;;;;;;13.90;99.90;;;;;;8372822;28;19924;-74
2021/10/03 08:30:42;;;;;;;;;;;13.90;99.90;;;;;;8372470;28;19963;-73
2021/10/03 08:34:44;;;;;;;;;;;13.90;99.90;;;;;;8369537;28;19951;-73
2021/10/03 08:38:46;;;;;;;;;;;13.90;99.90;;;;;;8374160;28;19935;-73
2021/10/03 08:42:48;;;;;;;;;;;13.90;99.90;;;;;;8371340;28;19924;-73
2021/10/03 08:46:52;;;;;;;;;;;13.90;99.90;;;;;;8387976;28;19929;-74
2021/10/03 08:50:53;;;;;;;;;;;14.00;99.90;;;;;;8387454;28;20344;-74
2021/10/03 08:54:55;;;;;;;;;;;14.00;99.90;;;;;;8369921;28;20399;-74
2021/10/03 08:58:57;;;;;;;;;;;14.00;99.90;;;;;;8371477;28;19924;-73
2021/10/03 09:03:06;;;;;;;;;;;14.00;99.90;;;;;;8366153;28;19935;-73
2021/10/03 09:07:09;;;;;;;;;;;14.00;99.90;;;;;;8367386;28;19924;-74
2021/10/03 09:11:15;;;;;;;;;;;14.00;99.90;;;;;;8389651;28;20438;-72
2021/10/03 09:15:18;;;;;;;;;;;14.00;99.90;;;;;;8369607;28;19944;-73
2021/10/03 09:19:20;;;;;;;;;;;14.00;99.90;;;;;;8367140;28;20035;-73
2021/10/03 09:23:22;;;;;;;;;;;14.00;99.90;;;;;;8373153;28;19924;-73
2021/10/03 09:27:44;;;;;;;;;;;14.00;99.90;;;;;;8364715;28;19925;-73
2021/10/03 09:32:05;;;;;;;;;;;14.00;99.90;;;;;;8385319;28;19927;-73
2021/10/03 09:36:07;;;;;;;;;;;14.00;99.90;;;;;;8367683;28;20310;-72
2021/10/03 09:40:12;;;;;;;;;;;14.10;99.90;;;;;;8368031;28;19932;-73
2021/10/03 09:44:15;;;;;;;;;;;14.10;99.90;;;;;;8361540;28;19927;-72
2021/10/03 09:48:17;;;;;;;;;;;14.10;99.90;;;;;;8367034;28;19928;-73
2021/10/03 09:52:18;;;;;;;;;;;14.20;99.90;;;;;;8384545;28;20612;-73
2021/10/03 09:56:20;;;;;;;;;;;14.20;99.90;;;;;;8367631;28;19920;-72
2021/10/03 10:00:23;;;;;;;;;;;14.20;99.90;;;;;;8365962;28;19928;-73
2021/10/03 10:04:26;;;;;;;;;;;14.20;99.90;;;;;;8369426;28;20382;-72
2021/10/03 10:08:28;;;;;;;;;;;14.30;99.90;;;;;;8371244;28;20375;-72
2021/10/03 10:12:31;;;;;;;;;;;14.30;99.90;;;;;;8371279;28;19924;-72
2021/10/03 10:16:32;;;;;;;;;;;14.30;99.90;;;;;;8362474;28;19929;-72
2021/10/03 10:20:35;;;;;;;;;;;14.30;99.90;;;;;;8365901;28;19921;-73
2021/10/03 10:24:46;;;;;;;;;;;14.40;99.90;;;;;;8363177;28;19936;-72
2021/10/03 10:28:47;;;;;;;;;;;14.40;99.90;;;;;;8367512;28;19928;-72
2021/10/03 10:32:55;;;;;;;;;;;14.40;99.90;;;;;;8365143;28;19929;-73
2021/10/03 10:36:58;;;;;;;;;;;14.40;99.90;;;;;;8366961;28;20345;-73
2021/10/03 10:41:20;;;;;;;;;;;14.40;99.90;;;;;;8360346;28;19970;-72
2021/10/03 10:45:28;;;;;;;;;;;14.40;99.90;;;;;;8361903;28;19974;-73
2021/10/03 10:49:29;;;;;;;;;;;14.40;99.90;;;;;;8361110;28;20012;-72
2021/10/03 10:53:32;;;;;;;;;;;14.40;99.90;;;;;;8363871;28;19984;-72
2021/10/03 10:57:57;;;;;;;;;;;14.40;99.90;;;;;;8363330;28;20421;-72
2021/10/03 11:01:59;;;;;;;;;;;14.30;99.90;;;;;;8355640;28;19962;-73
2021/10/03 11:06:01;;;;;;;;;;;14.30;99.90;;;;;;8364339;28;20626;-73
2021/10/03 11:10:03;;;;;;;;;;;14.30;99.90;;;;;;8359575;28;19924;-73
2021/10/03 11:14:05;;;;;;;;;;;14.30;99.90;;;;;;8365786;28;19927;-73
2021/10/03 11:18:06;;;;;;;;;;;14.30;99.90;;;;;;8366831;28;19929;-73
2021/10/03 11:22:10;;;;;;;;;;;14.30;99.90;;;;;;8368014;28;19939;-73
2021/10/03 11:26:12;;;;;;;;;;;14.30;99.90;;;;;;8366035;28;19920;-73
2021/10/03 11:30:13;;;;;;;;;;;14.20;99.90;;;;;;8365610;28;20433;-72
2021/10/03 11:34:33;;;;;;;;;;;14.30;99.90;;;;;;8358022;28;19924;-72
2021/10/03 11:38:45;;;;;;;;;;;14.30;99.90;;;;;;8354989;28;19928;-72
2021/10/03 11:42:51;;;;;;;;;;;14.30;99.90;;;;;;8361886;28;19928;-72
2021/10/03 11:46:57;;;;;;;;;;;14.30;99.90;;;;;;8362314;28;20738;-72
2021/10/03 11:50:58;;;;;;;;;;;14.30;99.90;;;;;;8352083;28;19921;-73
2021/10/03 11:55:02;;;;;;;;;;;14.30;99.90;;;;;;8362359;28;19931;-73
2021/10/03 11:59:04;;;;;;;;;;;14.30;99.90;;;;;;8351493;28;19921;-73
2021/10/03 12:03:07;;;;;;;;;;;14.30;99.90;;;;;;8364355;28;20668;-72
2021/10/03 12:07:14;;;;;;;;;;;14.20;99.90;;;;;;8373806;28;19927;-72
2021/10/03 12:11:16;;;;;;;;;;;14.10;99.90;;;;;;8370577;28;20359;-72
2021/10/03 12:15:34;;;;;;;;;;;14.00;99.90;;;;;;8373253;28;20268;-73
2021/10/03 12:19:54;;;;;;;;;;;13.90;99.90;;;;;;8370134;28;19986;-73
2021/10/03 12:24:00;;;;;;;;;;;13.90;99.90;;;;;;8372810;28;19924;-73
2021/10/03 12:28:01;;;;;;;;;;;13.80;99.90;;;;;;8353394;28;20338;-73
2021/10/03 12:32:03;;;;;;;;;;;13.70;99.90;;;;;;8374630;28;19998;-73
2021/10/03 12:36:05;;;;;;;;;;;13.70;99.90;;;;;;8378417;28;20376;-73
2021/10/03 12:40:09;;;;;;;;;;;13.60;99.90;;;;;;8359036;28;19928;-72
2021/10/03 12:44:11;;;;;;;;;;;13.70;99.90;;;;;;8372651;28;20358;-73
2021/10/03 12:48:14;;;;;;;;;;;13.60;99.90;;;;;;8385864;28;20427;-73
2021/10/03 12:52:18;;;;;;;;;;;13.60;99.90;;;;;;8369302;28;20486;-72
2021/10/03 12:56:20;;;;;;;;;;;13.60;99.90;;;;;;8371747;28;19994;-73
2021/10/03 13:00:22;;;;;;;;;;;13.60;99.90;;;;;;8372265;28;19929;-73
2021/10/03 13:04:24;;;;;;;;;;;13.50;99.90;;;;;;8369733;28;19966;-72
2021/10/03 13:08:26;;;;;;;;;;;13.30;99.90;;;;;;8365726;28;20002;-73
2021/10/03 13:12:27;;;;;;;;;;;13.20;99.90;;;;;;8369257;28;19971;-73
2021/10/03 13:16:29;;;;;;;;;;;13.20;99.90;;;;;;8363390;28;19920;-73
2021/10/03 13:20:31;;;;;;;;;;;13.00;99.90;;;;;;8372054;28;20364;-73
2021/10/03 13:24:33;;;;;;;;;;;13.00;99.90;;;;;;8369327;28;19920;-73
2021/10/03 13:28:34;;;;;;;;;;;12.90;99.90;;;;;;8372837;28;20006;-73
2021/10/03 13:32:37;;;;;;;;;;;12.80;99.90;;;;;;8369189;28;19924;-73
2021/10/03 13:36:38;;;;;;;;;;;12.80;99.90;;;;;;8374185;28;19936;-73
2021/10/03 13:40:40;;;;;;;;;;;12.80;99.90;;;;;;8369196;28;19929;-73
2021/10/03 13:44:42;;;;;;;;;;;12.80;99.90;;;;;;8370695;28;19924;-73
2021/10/03 13:48:43;;;;;;;;;;;12.90;99.90;;;;;;8366572;28;19999;-72
2021/10/03 13:52:45;;;;;;;;;;;12.90;99.90;;;;;;8365307;28;19950;-72
2021/10/03 13:56:47;;;;;;;;;;;12.90;99.90;;;;;;8365516;28;19920;-73
2021/10/03 14:00:49;;;;;;;;;;;13.00;99.90;;;;;;8377409;28;19928;-73
2021/10/03 14:04:51;;;;;;;;;;;13.00;99.90;;;;;;8370079;28;19940;-73
2021/10/03 14:08:52;;;;;;;;;;;13.00;99.90;;;;;;8368658;28;19961;-73
2021/10/03 14:12:54;;;;;;;;;;;13.00;99.90;;;;;;8368542;28;19925;-73
2021/10/03 14:16:56;;;;;;;;;;;13.10;99.90;;;;;;8371243;28;19951;-72
2021/10/03 14:20:57;;;;;;;;;;;13.20;99.90;;;;;;8366197;28;19931;-72
2021/10/03 14:24:59;;;;;;;;;;;13.20;99.90;;;;;;8387387;28;20386;-72
2021/10/03 14:29:01;;;;;;;;;;;13.20;99.90;;;;;;8368030;28;19971;-73
2021/10/03 14:33:05;;;;;;;;;;;13.30;99.90;;;;;;8367602;28;19944;-72
2021/10/03 14:37:07;;;;;;;;;;;13.30;99.90;;;;;;8365212;28;20402;-73
2021/10/03 14:41:08;;;;;;;;;;;13.40;99.90;;;;;;8370738;28;19921;-73
2021/10/03 14:45:10;;;;;;;;;;;13.40;99.90;;;;;;8367609;28;20410;-73
2021/10/03 14:49:12;;;;;;;;;;;13.40;99.90;;;;;;8365119;28;19924;-72
2021/10/03 14:53:13;;;;;;;;;;;13.50;99.90;;;;;;8366783;28;19928;-72
2021/10/03 14:57:15;;;;;;;;;;;13.50;99.90;;;;;;8365113;28;19920;-72
2021/10/03 15:01:17;;;;;;;;;;;13.50;99.90;;;;;;8366194;28;19929;-72
2021/10/03 15:05:18;;;;;;;;;;;13.50;99.90;;;;;;8366061;28;19924;-73
2021/10/03 15:09:20;;;;;;;;;;;13.50;99.90;;;;;;8374757;28;19924;-74
2021/10/03 15:13:23;;;;;;;;;;;13.50;99.90;;;;;;8364608;28;19921;-71
2021/10/03 15:17:24;;;;;;;;;;;13.60;99.90;;;;;;8363640;28;20358;-72
2021/10/03 15:21:26;;;;;;;;;;;13.60;99.90;;;;;;8374241;28;19943;-72
2021/10/03 15:25:28;;;;;;;;;;;13.60;99.90;;;;;;8365322;28;19951;-72
2021/10/03 15:29:29;;;;;;;;;;;13.60;99.90;;;;;;8370170;28;19928;-72
2021/10/03 15:33:31;;;;;;;;;;;13.50;99.90;;;;;;8361743;28;19928;-72
2021/10/03 15:37:32;;;;;;;;;;;13.50;99.90;;;;;;8359722;28;19925;-72
2021/10/03 15:41:34;;;;;;;;;;;13.50;99.90;;;;;;8360016;28;19936;-72
2021/10/03 15:45:36;;;;;;;;;;;13.50;99.90;;;;;;8363721;28;19921;-72
2021/10/03 15:49:38;;;;;;;;;;;13.50;99.90;;;;;;8345841;28;20478;-73
2021/10/03 15:53:40;;;;;;;;;;;13.50;99.90;;;;;;8363167;28;19928;-73
2021/10/03 15:57:42;;;;;;;;;;;13.50;99.90;;;;;;8381208;28;20018;-72
2021/10/03 16:01:45;;;;;;;;;;;13.50;99.90;;;;;;8362427;28;20304;-72
2021/10/03 16:05:47;;;;;;;;;;;13.50;99.90;;;;;;8362107;28;20375;-72
2021/10/03 16:09:49;;;;;;;;;;;13.50;99.90;;;;;;8362728;28;19924;-73
2021/10/03 16:13:50;;;;;;;;;;;13.50;99.90;;;;;;8361828;28;19921;-73
2021/10/03 16:17:52;;;;;;;;;;;13.60;99.90;;;;;;8347673;28;19921;-72
2021/10/03 16:21:54;;;;;;;;;;;13.60;99.90;;;;;;8363632;28;19924;-72
2021/10/03 16:25:57;;;;;;;;;;;13.60;99.90;;;;;;8378549;28;19928;-72
2021/10/03 16:29:58;;;;;;;;;;;13.50;99.90;;;;;;8362823;28;19928;-73
2021/10/03 16:34:00;;;;;;;;;;;13.50;99.90;;;;;;8366687;28;19924;-72
2021/10/03 16:38:02;;;;;;;;;;;13.50;99.90;;;;;;8361933;28;19935;-73
2021/10/03 16:42:05;;;;;;;;;;;13.40;99.90;;;;;;8367346;28;19943;-73
2021/10/03 16:46:07;;;;;;;;;;;13.30;99.90;;;;;;8370119;28;19931;-72
2021/10/03 16:50:08;;;;;;;;;;;13.30;99.90;;;;;;8388175;28;19924;-73
2021/10/03 16:54:10;;;;;;;;;;;13.20;99.90;;;;;;8385961;28;19928;-72
2021/10/03 16:58:12;;;;;;;;;;;13.20;99.90;;;;;;8390151;28;19931;-73
2021/10/03 17:02:13;;;;;;;;;;;13.10;99.90;;;;;;8370869;28;19920;-73
2021/10/03 17:06:15;;;;;;;;;;;13.00;99.90;;;;;;8369347;28;19989;-72
2021/10/03 17:10:17;;;;;;;;;;;13.00;99.90;;;;;;8371299;28;19927;-73
2021/10/03 17:14:19;;;;;;;;;;;12.90;99.90;;;;;;8372192;28;19929;-73
2021/10/03 17:18:20;;;;;;;;;;;12.90;99.90;;;;;;8365898;28;19928;-73
2021/10/03 17:22:22;;;;;;;;;;;12.90;99.90;;;;;;8366218;28;19924;-72
2021/10/03 17:26:24;;;;;;;;;;;12.80;99.90;;;;;;8372103;28;19944;-72
2021/10/03 17:30:27;;;;;;;;;;;12.80;99.90;;;;;;8367971;28;19921;-72
2021/10/03 17:34:29;;;;;;;;;;;12.80;99.90;;;;;;8352638;28;20308;-73
2021/10/03 17:38:31;;;;;;;;;;;12.70;99.90;;;;;;8367642;28;19928;-73
2021/10/03 17:42:33;;;;;;;;;;;12.70;99.90;;;;;;8370804;28;19920;-73
2021/10/03 17:46:35;;;;;;;;;;;12.70;99.90;;;;;;8373149;28;19948;-72
2021/10/03 17:50:37;;;;;;;;;;;12.70;99.90;;;;;;8384779;28;19981;-72
2021/10/03 17:54:38;;;;;;;;;;;12.60;99.90;;;;;;8364506;28;20509;-72
2021/10/03 17:58:40;;;;;;;;;;;12.60;99.90;;;;;;8372954;28;19929;-73
2021/10/03 18:02:42;;;;;;;;;;;12.60;99.90;;;;;;8388108;28;19924;-73
2021/10/03 18:06:44;;;;;;;;;;;12.50;99.90;;;;;;8371556;28;19927;-72
2021/10/03 18:10:46;;;;;;;;;;;12.50;99.90;;;;;;8368647;28;19927;-72
2021/10/03 18:14:47;;;;;;;;;;;12.50;99.90;;;;;;8366259;28;19929;-72
2021/10/03 18:18:49;;;;;;;;;;;12.50;99.90;;;;;;8369605;28;19920;-73
2021/10/03 18:22:52;;;;;;;;;;;12.50;99.90;;;;;;8369570;28;20389;-72
2021/10/03 18:26:54;;;;;;;;;;;12.40;99.90;;;;;;8356596;28;19921;-73
2021/10/03 18:30:56;;;;;;;;;;;12.40;99.90;;;;;;8364876;28;19932;-72
2021/10/03 18:34:58;;;;;;;;;;;12.40;99.90;;;;;;8363083;28;19921;-72
2021/10/03 18:38:59;;;;;;;;;;;12.40;99.90;;;;;;8360487;28;19920;-72
2021/10/03 18:43:02;;;;;;;;;;;12.40;99.90;;;;;;8366449;28;20754;-74
2021/10/03 18:47:04;;;;;;;;;;;12.30;99.90;;;;;;8369446;28;19939;-72
2021/10/03 18:51:07;;;;;;;;;;;12.30;99.90;;;;;;8366864;28;20260;-72
2021/10/03 18:55:08;;;;;;;;;;;12.40;99.90;;;;;;8365485;28;19940;-72
2021/10/03 18:59:10;;;;;;;;;;;12.30;99.90;;;;;;8366767;28;19931;-72
2021/10/03 19:03:12;;;;;;;;;;;12.30;99.90;;;;;;8382128;28;19928;-73
2021/10/03 19:07:13;;;;;;;;;;;12.30;99.90;;;;;;8365673;28;19921;-72
2021/10/03 19:11:15;;;;;;;;;;;12.30;99.90;;;;;;8364412;28;19920;-72
2021/10/03 19:15:17;;;;;;;;;;;12.30;99.90;;;;;;8365999;28;19979;-74
2021/10/03 19:19:19;;;;;;;;;;;12.30;99.90;;;;;;8382382;28;20031;-72
2021/10/03 19:23:21;;;;;;;;;;;12.30;99.90;;;;;;8361648;28;20628;-72
2021/10/03 19:27:22;;;;;;;;;;;12.30;99.90;;;;;;8369439;28;20304;-72
2021/10/03 19:31:24;;;;;;;;;;;12.30;99.90;;;;;;8363195;28;20004;-72
2021/10/03 19:35:26;;;;;;;;;;;12.30;99.90;;;;;;8364380;28;20328;-72
2021/10/03 19:39:27;;;;;;;;;;;12.30;99.90;;;;;;8367607;28;19920;-73
2021/10/03 19:43:29;;;;;;;;;;;12.30;99.90;;;;;;8363543;28;19921;-72
2021/10/03 19:47:31;;;;;;;;;;;12.30;99.90;;;;;;8365797;28;19975;-72
2021/10/03 19:51:33;;;;;;;;;;;12.30;99.90;;;;;;8365157;28;19967;-73
2021/10/03 19:55:36;;;;;;;;;;;12.30;99.90;;;;;;8364718;28;19927;-72
2021/10/03 19:59:37;;;;;;;;;;;12.30;99.90;;;;;;8360226;28;19924;-72
2021/10/03 20:03:39;;;;;;;;;;;12.40;99.90;;;;;;8363568;28;19935;-72
2021/10/03 20:07:41;;;;;;;;;;;12.40;99.90;;;;;;8362096;28;19928;-72
2021/10/03 20:11:43;;;;;;;;;;;12.40;99.90;;;;;;8361843;28;19935;-72
2021/10/03 20:15:45;;;;;;;;;;;12.40;99.90;;;;;;8366413;28;20273;-72
2021/10/03 20:19:46;;;;;;;;;;;12.50;99.90;;;;;;8366095;28;19931;-72
2021/10/03 20:23:48;;;;;;;;;;;12.40;99.90;;;;;;8371009;28;20317;-71
2021/10/03 20:27:49;;;;;;;;;;;12.50;99.90;;;;;;8365416;28;19920;-72
2021/10/03 20:31:53;;;;;;;;;;;12.50;99.90;;;;;;8367551;28;19931;-72
2021/10/03 20:35:55;;;;;;;;;;;12.50;99.90;;;;;;8364567;28;19925;-72
2021/10/03 20:39:57;;;;;;;;;;;12.50;99.90;;;;;;8370922;28;19924;-72
2021/10/03 20:44:00;;;;;;;;;;;12.50;99.90;;;;;;8369042;28;19936;-72
2021/10/03 20:48:05;;;;;;;;;;;12.60;99.90;;;;;;8389176;28;20372;-72
2021/10/03 20:52:07;;;;;;;;;;;12.60;99.90;;;;;;8368263;28;19928;-73
2021/10/03 20:56:09;;;;;;;;;;;12.60;99.90;;;;;;8374676;28;19991;-72
2021/10/03 21:00:11;;;;;;;;;;;12.60;99.90;;;;;;8366575;28;19920;-72
2021/10/03 21:04:13;;;;;;;;;;;12.60;99.90;;;;;;8381535;28;19947;-72
2021/10/03 21:08:14;;;;;;;;;;;12.60;99.90;;;;;;8391144;28;19927;-73
2021/10/03 21:12:16;;;;;;;;;;;12.60;99.90;;;;;;8391796;28;19924;-73
2021/10/03 21:16:18;;;;;;;;;;;12.60;99.90;;;;;;8395347;28;20361;-72
2021/10/03 21:20:20;;;;;;;;;;;12.60;99.90;;;;;;8385442;28;19939;-72
2021/10/03 21:24:21;;;;;;;;;;;12.60;99.90;;;;;;8390870;28;19935;-72
2021/10/03 21:28:23;;;;;;;;;;;12.60;99.90;;;;;;8391992;28;20387;-73
2021/10/03 21:32:25;;;;;;;;;;;12.60;99.90;;;;;;8387910;28;19921;-72
2021/10/03 21:36:27;;;;;;;;;;;12.60;99.90;;;;;;8387232;28;19932;-72
2021/10/03 21:40:28;;;;;;;;;;;12.60;99.90;;;;;;8390976;28;19921;-72
2021/10/03 21:44:30;;;;;;;;;;;12.60;99.90;;;;;;8392899;28;20225;-72
2021/10/03 21:48:32;;;;;;;;;;;12.60;99.90;;;;;;8393340;28;19920;-72
2021/10/03 21:52:34;;;;;;;;;;;12.60;99.90;;;;;;8394572;28;19920;-73
2021/10/03 21:56:36;;;;;;;;;;;12.60;99.90;;;;;;8393524;28;19920;-73
2021/10/03 22:00:47;;;;;;;;;;;12.70;99.90;;;;;;8388724;28;19982;-72
2021/10/03 22:04:49;;;;;;;;;;;12.70;99.90;;;;;;8387379;28;20317;-73
2021/10/03 22:08:51;;;;;;;;;;;12.70;99.90;;;;;;8401754;28;20463;-73
2021/10/03 22:12:52;;;;;;;;;;;12.70;99.90;;;;;;8387814;28;19921;-72
2021/10/03 22:16:54;;;;;;;;;;;12.70;99.90;;;;;;8388253;28;20287;-72
2021/10/03 22:20:55;;;;;;;;;;;12.70;99.90;;;;;;8385025;28;19920;-72
2021/10/03 22:24:58;;;;;;;;;;;12.70;99.90;;;;;;8391637;28;19924;-72
2021/10/03 22:29:00;;;;;;;;;;;12.70;99.90;;;;;;8370680;28;19927;-72
2021/10/03 22:33:01;;;;;;;;;;;12.70;99.90;;;;;;8389059;28;19927;-72
2021/10/03 22:37:03;;;;;;;;;;;12.60;99.90;;;;;;8392806;28;19924;-72
2021/10/03 22:41:05;;;;;;;;;;;12.60;99.90;;;;;;8389445;28;19920;-72
2021/10/03 22:45:08;;;;;;;;;;;12.60;99.90;;;;;;8405553;28;19921;-72
2021/10/03 22:49:14;;;;;;;;;;;12.60;99.90;;;;;;8391004;28;19920;-72
2021/10/03 22:53:16;;;;;;;;;;;12.60;99.90;;;;;;8387456;28;20074;-73
2021/10/03 22:57:17;;;;;;;;;;;12.60;99.90;;;;;;8388642;28;20299;-72
2021/10/03 23:01:19;;;;;;;;;;;12.60;99.90;;;;;;8406489;28;20719;-72
2021/10/03 23:05:21;;;;;;;;;;;12.60;99.90;;;;;;8391170;28;19976;-71
2021/10/03 23:09:23;;;;;;;;;;;12.60;99.90;;;;;;8389631;28;19954;-72
2021/10/03 23:13:24;;;;;;;;;;;12.60;99.90;;;;;;8390417;28;20342;-72
2021/10/03 23:17:26;;;;;;;;;;;12.60;99.90;;;;;;8383440;28;20300;-72
2021/10/03 23:21:28;;;;;;;;;;;12.60;99.90;;;;;;8378821;28;19927;-72
2021/10/03 23:25:29;;;;;;;;;;;12.60;99.90;;;;;;8387622;28;20355;-72
2021/10/03 23:29:31;;;;;;;;;;;12.50;99.90;;;;;;8383211;28;19920;-73